sensor_id;sensor_type;location;lat;lon;timestamp;temperature;humidity
5870;DHT22;2961;47.702;9.410;2022-12-19T00:01:04;-3.00;99.90
5870;DHT22;2961;47.702;9.410;2022-12-19T00:03:31;-3.00;99.90
5870;DHT22;2961;47.702;9.410;2022-12-19T00:06:00;-3.00;99.90
5870;DHT22;2961;47.702;9.410;2022-12-19T00:08:30;-3.00;99.90
5870;DHT22;2961;47.702;9.410;2022-12-19T00:10:59;-2.90;99.90
5870;DHT22;2961;47.702;9.410;2022-12-19T00:13:27;-3.00;99.90
5870;DHT22;2961;47.702;9.410;2022-12-19T00:15:59;-3.00;99.90
5870;DHT22;2961;47.702;9.410;2022-12-19T00:18:26;-3.00;99.90
5870;DHT22;2961;47.702;9.410;2022-12-19T00:20:54;-3.10;99.90
5870;DHT22;2961;47.702;9.410;2022-12-19T00:23:21;-3.10;99.90
5870;DHT22;2961;47.702;9.410;2022-12-19T00:25:48;-3.00;99.90
5870;DHT22;2961;47.702;9.410;2022-12-19T00:28:15;-3.10;99.90
5870;DHT22;2961;47.702;9.410;2022-12-19T00:30:41;-3.00;99.90
5870;DHT22;2961;47.702;9.410;2022-12-19T00:33:10;-3.00;99.90
5870;DHT22;2961;47.702;9.410;2022-12-19T00:35:36;-3.00;99.90
5870;DHT22;2961;47.702;9.410;2022-12-19T00:38:03;-3.00;99.90
5870;DHT22;2961;47.702;9.410;2022-12-19T00:40:30;-3.00;99.90
5870;DHT22;2961;47.702;9.410;2022-12-19T00:42:57;-2.90;99.90
5870;DHT22;2961;47.702;9.410;2022-12-19T00:45:23;-3.00;99.90
5870;DHT22;2961;47.702;9.410;2022-12-19T00:47:50;-3.00;99.90
5870;DHT22;2961;47.702;9.410;2022-12-19T00:50:18;-2.90;99.90
5870;DHT22;2961;47.702;9.410;2022-12-19T00:52:45;-3.00;99.90
5870;DHT22;2961;47.702;9.410;2022-12-19T00:55:12;-3.00;99.90
5870;DHT22;2961;47.702;9.410;2022-12-19T00:57:39;-3.00;99.90
5870;DHT22;2961;47.702;9.410;2022-12-19T01:00:07;-3.00;99.90
5870;DHT22;2961;47.702;9.410;2022-12-19T01:02:34;-3.00;99.90
5870;DHT22;2961;47.702;9.410;2022-12-19T01:05:00;-2.90;99.90
5870;DHT22;2961;47.702;9.410;2022-12-19T01:07:29;-2.90;99.90
5870;DHT22;2961;47.702;9.410;2022-12-19T01:09:55;-2.80;99.90
5870;DHT22;2961;47.702;9.410;2022-12-19T01:12:22;-2.80;99.90
5870;DHT22;2961;47.702;9.410;2022-12-19T01:15:17;-2.70;99.90
5870;DHT22;2961;47.702;9.410;2022-12-19T01:17:45;-2.70;99.90
5870;DHT22;2961;47.702;9.410;2022-12-19T01:20:14;-2.70;99.90
5870;DHT22;2961;47.702;9.410;2022-12-19T01:22:43;-2.70;99.90
5870;DHT22;2961;47.702;9.410;2022-12-19T01:25:10;-2.70;99.90
5870;DHT22;2961;47.702;9.410;2022-12-19T01:27:37;-2.70;99.90
5870;DHT22;2961;47.702;9.410;2022-12-19T01:30:05;-2.70;99.90
5870;DHT22;2961;47.702;9.410;2022-12-19T01:32:33;-2.60;99.90
5870;DHT22;2961;47.702;9.410;2022-12-19T01:34:59;-2.60;99.90
5870;DHT22;2961;47.702;9.410;2022-12-19T01:37:26;-2.60;99.90
5870;DHT22;2961;47.702;9.410;2022-12-19T01:39:54;-2.60;99.90
5870;DHT22;2961;47.702;9.410;2022-12-19T01:42:21;-2.60;99.90
5870;DHT22;2961;47.702;9.410;2022-12-19T01:45:19;-2.60;99.90
5870;DHT22;2961;47.702;9.410;2022-12-19T01:47:51;-2.60;99.90
5870;DHT22;2961;47.702;9.410;2022-12-19T01:50:23;-2.60;99.90
5870;DHT22;2961;47.702;9.410;2022-12-19T01:52:52;-2.70;99.90
5870;DHT22;2961;47.702;9.410;2022-12-19T01:55:20;-2.60;99.90
5870;DHT22;2961;47.702;9.410;2022-12-19T01:57:50;-2.70;99.90
5870;DHT22;2961;47.702;9.410;2022-12-19T02:00:17;-2.70;99.90
5870;DHT22;2961;47.702;9.410;2022-12-19T02:02:47;-2.70;99.90
5870;DHT22;2961;47.702;9.410;2022-12-19T02:05:17;-2.70;99.90
5870;DHT22;2961;47.702;9.410;2022-12-19T02:07:45;-2.70;99.90
5870;DHT22;2961;47.702;9.410;2022-12-19T02:10:12;-2.70;99.90
5870;DHT22;2961;47.702;9.410;2022-12-19T02:12:42;-2.70;99.90
5870;DHT22;2961;47.702;9.410;2022-12-19T02:15:10;-2.70;99.90
5870;DHT22;2961;47.702;9.410;2022-12-19T02:17:41;-2.60;99.90
5870;DHT22;2961;47.702;9.410;2022-12-19T02:23:59;-2.50;99.90
5870;DHT22;2961;47.702;9.410;2022-12-19T02:30:05;-2.50;99.90
5870;DHT22;2961;47.702;9.410;2022-12-19T02:32:51;-2.50;99.90
5870;DHT22;2961;47.702;9.410;2022-12-19T02:35:28;-2.60;99.90
5870;DHT22;2961;47.702;9.410;2022-12-19T02:38:06;-2.60;99.90
5870;DHT22;2961;47.702;9.410;2022-12-19T02:40:39;-2.50;99.90
5870;DHT22;2961;47.702;9.410;2022-12-19T02:43:09;-2.60;99.90
5870;DHT22;2961;47.702;9.410;2022-12-19T02:45:38;-2.60;99.90
5870;DHT22;2961;47.702;9.410;2022-12-19T02:48:08;-2.50;99.90
5870;DHT22;2961;47.702;9.410;2022-12-19T02:50:39;-2.50;99.90
5870;DHT22;2961;47.702;9.410;2022-12-19T02:53:08;-2.50;99.90
5870;DHT22;2961;47.702;9.410;2022-12-19T02:55:43;-2.40;99.90
5870;DHT22;2961;47.702;9.410;2022-12-19T02:58:33;-2.40;99.90
5870;DHT22;2961;47.702;9.410;2022-12-19T03:01:09;-2.40;99.90
5870;DHT22;2961;47.702;9.410;2022-12-19T03:03:50;-2.30;99.90
5870;DHT22;2961;47.702;9.410;2022-12-19T03:06:24;-2.30;99.90
5870;DHT22;2961;47.702;9.410;2022-12-19T03:08:56;-2.30;99.90
5870;DHT22;2961;47.702;9.410;2022-12-19T03:11:41;-2.30;99.90
5870;DHT22;2961;47.702;9.410;2022-12-19T03:14:13;-2.20;99.90
5870;DHT22;2961;47.702;9.410;2022-12-19T03:16:41;-2.10;99.90
5870;DHT22;2961;47.702;9.410;2022-12-19T03:19:12;-2.10;99.90
5870;DHT22;2961;47.702;9.410;2022-12-19T03:21:41;-2.10;99.90
5870;DHT22;2961;47.702;9.410;2022-12-19T03:24:10;-2.20;99.90
5870;DHT22;2961;47.702;9.410;2022-12-19T03:26:41;-2.20;99.90
5870;DHT22;2961;47.702;9.410;2022-12-19T03:29:14;-2.20;99.90
5870;DHT22;2961;47.702;9.410;2022-12-19T03:31:44;-2.30;99.90
5870;DHT22;2961;47.702;9.410;2022-12-19T03:34:17;-2.20;99.90
5870;DHT22;2961;47.702;9.410;2022-12-19T03:36:47;-2.20;99.90
5870;DHT22;2961;47.702;9.410;2022-12-19T03:39:15;-2.20;99.90
5870;DHT22;2961;47.702;9.410;2022-12-19T03:41:44;-2.20;99.90
5870;DHT22;2961;47.702;9.410;2022-12-19T03:44:31;-2.20;99.90
5870;DHT22;2961;47.702;9.410;2022-12-19T03:47:04;-2.30;99.90
5870;DHT22;2961;47.702;9.410;2022-12-19T03:49:34;-2.20;99.90
5870;DHT22;2961;47.702;9.410;2022-12-19T03:52:08;-2.20;99.90
5870;DHT22;2961;47.702;9.410;2022-12-19T03:54:39;-2.30;99.90
5870;DHT22;2961;47.702;9.410;2022-12-19T03:57:09;-2.20;99.90
5870;DHT22;2961;47.702;9.410;2022-12-19T03:59:41;-2.20;99.90
5870;DHT22;2961;47.702;9.410;2022-12-19T04:02:11;-2.20;99.90
5870;DHT22;2961;47.702;9.410;2022-12-19T04:04:43;-2.20;99.90
5870;DHT22;2961;47.702;9.410;2022-12-19T04:07:11;-2.20;99.90
5870;DHT22;2961;47.702;9.410;2022-12-19T04:09:41;-2.10;99.90
5870;DHT22;2961;47.702;9.410;2022-12-19T04:12:11;-2.00;99.90
5870;DHT22;2961;47.702;9.410;2022-12-19T04:14:40;-2.00;99.90
5870;DHT22;2961;47.702;9.410;2022-12-19T04:17:12;-2.00;99.90
5870;DHT22;2961;47.702;9.410;2022-12-19T04:19:47;-2.00;99.90
5870;DHT22;2961;47.702;9.410;2022-12-19T04:22:20;-2.00;99.90
5870;DHT22;2961;47.702;9.410;2022-12-19T04:24:49;-2.00;99.90
5870;DHT22;2961;47.702;9.410;2022-12-19T04:27:18;-2.00;99.90
5870;DHT22;2961;47.702;9.410;2022-12-19T04:29:45;-2.00;99.90
5870;DHT22;2961;47.702;9.410;2022-12-19T04:32:13;-2.00;99.90
5870;DHT22;2961;47.702;9.410;2022-12-19T04:34:40;-1.90;99.90
5870;DHT22;2961;47.702;9.410;2022-12-19T04:37:09;-2.00;99.90
5870;DHT22;2961;47.702;9.410;2022-12-19T04:39:36;-1.90;99.90
5870;DHT22;2961;47.702;9.410;2022-12-19T04:42:03;-2.00;99.90
5870;DHT22;2961;47.702;9.410;2022-12-19T04:44:30;-2.00;99.90
5870;DHT22;2961;47.702;9.410;2022-12-19T04:46:56;-1.90;99.90
5870;DHT22;2961;47.702;9.410;2022-12-19T04:49:23;-1.90;99.90
5870;DHT22;2961;47.702;9.410;2022-12-19T04:51:50;-1.80;99.90
5870;DHT22;2961;47.702;9.410;2022-12-19T04:54:18;-1.80;99.90
5870;DHT22;2961;47.702;9.410;2022-12-19T04:56:45;-1.80;99.90
5870;DHT22;2961;47.702;9.410;2022-12-19T04:59:12;-1.80;99.90
5870;DHT22;2961;47.702;9.410;2022-12-19T05:01:38;-1.70;99.90
5870;DHT22;2961;47.702;9.410;2022-12-19T05:04:05;-1.70;99.90
5870;DHT22;2961;47.702;9.410;2022-12-19T05:06:32;-1.80;99.90
5870;DHT22;2961;47.702;9.410;2022-12-19T05:08:59;-1.80;99.90
5870;DHT22;2961;47.702;9.410;2022-12-19T05:11:27;-1.70;99.90
5870;DHT22;2961;47.702;9.410;2022-12-19T05:13:54;-1.60;99.90
5870;DHT22;2961;47.702;9.410;2022-12-19T05:16:21;-1.60;99.90
5870;DHT22;2961;47.702;9.410;2022-12-19T05:18:48;-1.40;99.90
5870;DHT22;2961;47.702;9.410;2022-12-19T05:21:15;-1.40;99.90
5870;DHT22;2961;47.702;9.410;2022-12-19T05:23:42;-1.50;99.90
5870;DHT22;2961;47.702;9.410;2022-12-19T05:26:10;-1.40;99.90
5870;DHT22;2961;47.702;9.410;2022-12-19T05:28:38;-1.50;99.90
5870;DHT22;2961;47.702;9.410;2022-12-19T05:31:06;-1.50;99.90
5870;DHT22;2961;47.702;9.410;2022-12-19T05:33:34;-1.40;99.90
5870;DHT22;2961;47.702;9.410;2022-12-19T05:36:01;-1.30;99.90
5870;DHT22;2961;47.702;9.410;2022-12-19T05:38:28;-1.30;99.90
5870;DHT22;2961;47.702;9.410;2022-12-19T05:40:55;-1.30;99.90
5870;DHT22;2961;47.702;9.410;2022-12-19T05:43:23;-1.20;99.90
5870;DHT22;2961;47.702;9.410;2022-12-19T05:45:51;-1.20;99.90
5870;DHT22;2961;47.702;9.410;2022-12-19T05:48:17;-1.10;99.90
5870;DHT22;2961;47.702;9.410;2022-12-19T05:50:47;-1.10;99.90
5870;DHT22;2961;47.702;9.410;2022-12-19T05:53:15;-1.10;99.90
5870;DHT22;2961;47.702;9.410;2022-12-19T05:55:41;-1.00;99.90
5870;DHT22;2961;47.702;9.410;2022-12-19T05:58:08;-1.00;99.90
5870;DHT22;2961;47.702;9.410;2022-12-19T06:00:35;-1.00;99.90
5870;DHT22;2961;47.702;9.410;2022-12-19T06:03:03;-1.00;99.90
5870;DHT22;2961;47.702;9.410;2022-12-19T06:05:30;-1.00;99.90
5870;DHT22;2961;47.702;9.410;2022-12-19T06:07:57;-0.90;99.90
5870;DHT22;2961;47.702;9.410;2022-12-19T06:10:24;-0.90;99.90
5870;DHT22;2961;47.702;9.410;2022-12-19T06:12:51;-0.90;99.90
5870;DHT22;2961;47.702;9.410;2022-12-19T06:15:17;-0.90;99.90
5870;DHT22;2961;47.702;9.410;2022-12-19T06:17:44;-0.90;99.90
5870;DHT22;2961;47.702;9.410;2022-12-19T06:20:12;-0.90;99.90
5870;DHT22;2961;47.702;9.410;2022-12-19T06:22:39;-0.80;99.90
5870;DHT22;2961;47.702;9.410;2022-12-19T06:25:06;-0.80;99.90
5870;DHT22;2961;47.702;9.410;2022-12-19T06:27:34;-0.80;99.90
5870;DHT22;2961;47.702;9.410;2022-12-19T06:30:00;-0.80;99.90
5870;DHT22;2961;47.702;9.410;2022-12-19T06:32:41;-0.90;99.90
5870;DHT22;2961;47.702;9.410;2022-12-19T06:35:08;-1.00;99.90
5870;DHT22;2961;47.702;9.410;2022-12-19T06:37:36;-1.00;99.90
5870;DHT22;2961;47.702;9.410;2022-12-19T06:40:04;-1.00;99.90
5870;DHT22;2961;47.702;9.410;2022-12-19T06:42:30;-1.00;99.90
5870;DHT22;2961;47.702;9.410;2022-12-19T06:44:56;-1.00;99.90
5870;DHT22;2961;47.702;9.410;2022-12-19T06:47:23;-1.00;99.90
5870;DHT22;2961;47.702;9.410;2022-12-19T06:49:50;-1.00;99.90
5870;DHT22;2961;47.702;9.410;2022-12-19T06:52:17;-1.10;99.90
5870;DHT22;2961;47.702;9.410;2022-12-19T06:54:45;-1.10;99.90
5870;DHT22;2961;47.702;9.410;2022-12-19T06:57:12;-1.10;99.90
5870;DHT22;2961;47.702;9.410;2022-12-19T06:59:39;-1.10;99.90
5870;DHT22;2961;47.702;9.410;2022-12-19T07:02:22;-1.00;99.90
5870;DHT22;2961;47.702;9.410;2022-12-19T07:04:56;-0.90;99.90
5870;DHT22;2961;47.702;9.410;2022-12-19T07:07:27;-0.80;99.90
5870;DHT22;2961;47.702;9.410;2022-12-19T07:09:55;-0.80;99.90
5870;DHT22;2961;47.702;9.410;2022-12-19T07:12:22;-0.80;99.90
5870;DHT22;2961;47.702;9.410;2022-12-19T07:14:49;-0.80;99.90
5870;DHT22;2961;47.702;9.410;2022-12-19T07:17:16;-0.80;99.90
5870;DHT22;2961;47.702;9.410;2022-12-19T07:19:43;-0.80;99.90
5870;DHT22;2961;47.702;9.410;2022-12-19T07:22:10;-0.80;99.90
5870;DHT22;2961;47.702;9.410;2022-12-19T07:24:37;-0.80;99.90
5870;DHT22;2961;47.702;9.410;2022-12-19T07:27:05;-0.80;99.90
5870;DHT22;2961;47.702;9.410;2022-12-19T07:29:32;-0.80;99.90
5870;DHT22;2961;47.702;9.410;2022-12-19T07:31:59;-0.70;99.90
5870;DHT22;2961;47.702;9.410;2022-12-19T07:34:25;-0.80;99.90
5870;DHT22;2961;47.702;9.410;2022-12-19T07:36:52;-0.70;99.90
5870;DHT22;2961;47.702;9.410;2022-12-19T07:39:19;-0.70;99.90
5870;DHT22;2961;47.702;9.410;2022-12-19T07:41:47;-0.70;99.90
5870;DHT22;2961;47.702;9.410;2022-12-19T07:44:15;-0.60;99.90
5870;DHT22;2961;47.702;9.410;2022-12-19T07:46:42;-0.60;99.90
5870;DHT22;2961;47.702;9.410;2022-12-19T07:49:09;-0.60;99.90
5870;DHT22;2961;47.702;9.410;2022-12-19T07:51:36;-0.50;99.90
5870;DHT22;2961;47.702;9.410;2022-12-19T07:54:04;-0.50;99.90
5870;DHT22;2961;47.702;9.410;2022-12-19T07:56:31;-0.50;99.90
5870;DHT22;2961;47.702;9.410;2022-12-19T07:58:57;-0.40;99.90
5870;DHT22;2961;47.702;9.410;2022-12-19T08:01:25;-0.40;99.90
5870;DHT22;2961;47.702;9.410;2022-12-19T08:03:53;-0.40;99.90
5870;DHT22;2961;47.702;9.410;2022-12-19T08:06:20;-0.30;99.90
5870;DHT22;2961;47.702;9.410;2022-12-19T08:08:47;-0.30;99.90
5870;DHT22;2961;47.702;9.410;2022-12-19T08:11:16;-0.30;99.90
5870;DHT22;2961;47.702;9.410;2022-12-19T08:13:43;-0.20;99.90
5870;DHT22;2961;47.702;9.410;2022-12-19T08:16:10;-0.20;99.90
5870;DHT22;2961;47.702;9.410;2022-12-19T08:18:38;-0.30;99.90
5870;DHT22;2961;47.702;9.410;2022-12-19T08:21:06;-0.30;99.90
5870;DHT22;2961;47.702;9.410;2022-12-19T08:23:33;-0.30;99.90
5870;DHT22;2961;47.702;9.410;2022-12-19T08:26:00;-0.30;99.90
5870;DHT22;2961;47.702;9.410;2022-12-19T08:28:28;-0.30;99.90
5870;DHT22;2961;47.702;9.410;2022-12-19T08:30:55;-0.40;99.90
5870;DHT22;2961;47.702;9.410;2022-12-19T08:33:23;-0.30;99.90
5870;DHT22;2961;47.702;9.410;2022-12-19T08:35:51;-0.30;99.90
5870;DHT22;2961;47.702;9.410;2022-12-19T08:38:17;-0.20;99.90
5870;DHT22;2961;47.702;9.410;2022-12-19T08:40:51;-0.20;99.90
5870;DHT22;2961;47.702;9.410;2022-12-19T08:43:18;-0.20;99.90
5870;DHT22;2961;47.702;9.410;2022-12-19T08:45:47;-0.10;99.90
5870;DHT22;2961;47.702;9.410;2022-12-19T08:48:14;-0.10;99.90
5870;DHT22;2961;47.702;9.410;2022-12-19T08:50:48;0.00;99.90
5870;DHT22;2961;47.702;9.410;2022-12-19T08:53:16;0.10;99.90
5870;DHT22;2961;47.702;9.410;2022-12-19T08:55:43;0.10;99.90
5870;DHT22;2961;47.702;9.410;2022-12-19T08:58:10;0.20;99.90
5870;DHT22;2961;47.702;9.410;2022-12-19T09:00:37;0.30;99.90
5870;DHT22;2961;47.702;9.410;2022-12-19T09:03:04;0.40;99.90
5870;DHT22;2961;47.702;9.410;2022-12-19T09:05:30;0.40;99.90
5870;DHT22;2961;47.702;9.410;2022-12-19T09:07:57;0.50;99.90
5870;DHT22;2961;47.702;9.410;2022-12-19T09:10:26;0.60;99.90
5870;DHT22;2961;47.702;9.410;2022-12-19T09:12:54;0.60;99.90
5870;DHT22;2961;47.702;9.410;2022-12-19T09:15:21;0.70;99.90
5870;DHT22;2961;47.702;9.410;2022-12-19T09:17:48;0.60;99.90
5870;DHT22;2961;47.702;9.410;2022-12-19T09:20:15;0.70;99.90
5870;DHT22;2961;47.702;9.410;2022-12-19T09:22:41;0.70;99.90
5870;DHT22;2961;47.702;9.410;2022-12-19T09:25:09;0.70;99.90
5870;DHT22;2961;47.702;9.410;2022-12-19T09:27:38;0.70;99.90
5870;DHT22;2961;47.702;9.410;2022-12-19T09:30:06;0.80;99.90
5870;DHT22;2961;47.702;9.410;2022-12-19T09:32:33;0.90;99.90
5870;DHT22;2961;47.702;9.410;2022-12-19T09:34:59;0.90;99.90
5870;DHT22;2961;47.702;9.410;2022-12-19T09:37:26;0.90;99.90
5870;DHT22;2961;47.702;9.410;2022-12-19T09:39:53;0.90;99.90
5870;DHT22;2961;47.702;9.410;2022-12-19T09:42:29;0.90;99.90
5870;DHT22;2961;47.702;9.410;2022-12-19T09:45:14;0.80;99.90
5870;DHT22;2961;47.702;9.410;2022-12-19T09:47:46;0.80;99.90
5870;DHT22;2961;47.702;9.410;2022-12-19T09:50:25;0.80;99.90
5870;DHT22;2961;47.702;9.410;2022-12-19T09:52:57;0.80;99.90
5870;DHT22;2961;47.702;9.410;2022-12-19T09:55:30;0.80;99.90
5870;DHT22;2961;47.702;9.410;2022-12-19T09:58:01;0.80;99.90
5870;DHT22;2961;47.702;9.410;2022-12-19T10:00:35;0.90;99.90
5870;DHT22;2961;47.702;9.410;2022-12-19T10:03:08;1.00;99.90
5870;DHT22;2961;47.702;9.410;2022-12-19T10:05:42;1.00;99.90
5870;DHT22;2961;47.702;9.410;2022-12-19T10:08:15;1.10;99.90
5870;DHT22;2961;47.702;9.410;2022-12-19T10:10:53;1.00;99.90
5870;DHT22;2961;47.702;9.410;2022-12-19T10:13:31;1.10;99.90
5870;DHT22;2961;47.702;9.410;2022-12-19T10:16:06;1.10;99.90
5870;DHT22;2961;47.702;9.410;2022-12-19T10:18:43;1.10;99.90
5870;DHT22;2961;47.702;9.410;2022-12-19T10:21:26;1.20;99.90
5870;DHT22;2961;47.702;9.410;2022-12-19T10:24:19;1.20;99.90
5870;DHT22;2961;47.702;9.410;2022-12-19T10:26:50;1.30;99.90
5870;DHT22;2961;47.702;9.410;2022-12-19T10:29:33;1.30;99.90
5870;DHT22;2961;47.702;9.410;2022-12-19T10:32:10;1.30;99.90
5870;DHT22;2961;47.702;9.410;2022-12-19T10:34:41;1.40;99.90
5870;DHT22;2961;47.702;9.410;2022-12-19T10:37:17;1.60;99.90
5870;DHT22;2961;47.702;9.410;2022-12-19T10:40:05;1.70;99.90
5870;DHT22;2961;47.702;9.410;2022-12-19T10:42:45;1.80;99.90
5870;DHT22;2961;47.702;9.410;2022-12-19T10:45:17;1.90;99.90
5870;DHT22;2961;47.702;9.410;2022-12-19T10:47:54;1.90;99.90
5870;DHT22;2961;47.702;9.410;2022-12-19T10:50:24;2.00;99.90
5870;DHT22;2961;47.702;9.410;2022-12-19T10:52:52;2.00;99.90
5870;DHT22;2961;47.702;9.410;2022-12-19T10:55:37;2.00;99.90
5870;DHT22;2961;47.702;9.410;2022-12-19T10:58:17;2.00;99.90
5870;DHT22;2961;47.702;9.410;2022-12-19T11:01:04;2.00;99.90
5870;DHT22;2961;47.702;9.410;2022-12-19T11:03:33;2.10;99.90
5870;DHT22;2961;47.702;9.410;2022-12-19T11:06:01;2.10;99.90
5870;DHT22;2961;47.702;9.410;2022-12-19T11:08:30;2.10;99.90
5870;DHT22;2961;47.702;9.410;2022-12-19T11:11:11;2.10;99.90
5870;DHT22;2961;47.702;9.410;2022-12-19T11:13:40;2.10;99.90
5870;DHT22;2961;47.702;9.410;2022-12-19T11:16:08;2.10;99.90
5870;DHT22;2961;47.702;9.410;2022-12-19T11:18:38;2.10;99.90
5870;DHT22;2961;47.702;9.410;2022-12-19T11:21:12;2.20;99.90
5870;DHT22;2961;47.702;9.410;2022-12-19T11:23:48;2.20;99.90
5870;DHT22;2961;47.702;9.410;2022-12-19T11:26:27;2.20;99.90
5870;DHT22;2961;47.702;9.410;2022-12-19T11:29:00;2.10;99.90
5870;DHT22;2961;47.702;9.410;2022-12-19T11:31:28;2.10;99.90
5870;DHT22;2961;47.702;9.410;2022-12-19T11:34:03;2.10;99.90
5870;DHT22;2961;47.702;9.410;2022-12-19T11:36:34;2.00;99.90
5870;DHT22;2961;47.702;9.410;2022-12-19T11:39:02;2.00;99.90
5870;DHT22;2961;47.702;9.410;2022-12-19T11:41:34;2.00;99.90
5870;DHT22;2961;47.702;9.410;2022-12-19T11:44:09;2.00;99.90
5870;DHT22;2961;47.702;9.410;2022-12-19T11:46:41;2.00;99.90
5870;DHT22;2961;47.702;9.410;2022-12-19T11:49:20;2.00;99.90
5870;DHT22;2961;47.702;9.410;2022-12-19T11:51:53;1.90;99.90
5870;DHT22;2961;47.702;9.410;2022-12-19T11:54:26;2.00;99.90
5870;DHT22;2961;47.702;9.410;2022-12-19T11:56:56;2.00;99.90
5870;DHT22;2961;47.702;9.410;2022-12-19T11:59:28;2.00;99.90
5870;DHT22;2961;47.702;9.410;2022-12-19T12:02:18;2.00;99.90
5870;DHT22;2961;47.702;9.410;2022-12-19T12:05:03;2.00;99.90
5870;DHT22;2961;47.702;9.410;2022-12-19T12:07:35;2.10;99.90
5870;DHT22;2961;47.702;9.410;2022-12-19T12:10:12;2.10;99.90
5870;DHT22;2961;47.702;9.410;2022-12-19T12:12:51;2.10;99.90
5870;DHT22;2961;47.702;9.410;2022-12-19T12:15:39;2.20;99.90
5870;DHT22;2961;47.702;9.410;2022-12-19T12:18:14;2.20;99.90
5870;DHT22;2961;47.702;9.410;2022-12-19T12:20:52;2.20;99.90
5870;DHT22;2961;47.702;9.410;2022-12-19T12:23:24;2.30;99.90
5870;DHT22;2961;47.702;9.410;2022-12-19T12:26:00;2.30;99.90
5870;DHT22;2961;47.702;9.410;2022-12-19T12:28:47;2.30;99.90
5870;DHT22;2961;47.702;9.410;2022-12-19T12:31:26;2.30;99.90
5870;DHT22;2961;47.702;9.410;2022-12-19T12:34:03;2.30;99.90
5870;DHT22;2961;47.702;9.410;2022-12-19T12:36:50;2.20;99.90
5870;DHT22;2961;47.702;9.410;2022-12-19T12:39:42;2.30;99.90
5870;DHT22;2961;47.702;9.410;2022-12-19T12:42:19;2.30;99.90
5870;DHT22;2961;47.702;9.410;2022-12-19T12:44:53;2.30;99.90
5870;DHT22;2961;47.702;9.410;2022-12-19T12:47:22;2.40;99.90
5870;DHT22;2961;47.702;9.410;2022-12-19T12:49:53;2.40;99.90
5870;DHT22;2961;47.702;9.410;2022-12-19T12:52:31;2.40;99.90
5870;DHT22;2961;47.702;9.410;2022-12-19T12:54:59;2.40;99.90
5870;DHT22;2961;47.702;9.410;2022-12-19T12:57:35;2.50;99.90
5870;DHT22;2961;47.702;9.410;2022-12-19T13:00:17;2.40;99.90
5870;DHT22;2961;47.702;9.410;2022-12-19T13:02:47;2.50;99.90
5870;DHT22;2961;47.702;9.410;2022-12-19T13:08:26;2.60;99.90
5870;DHT22;2961;47.702;9.410;2022-12-19T13:10:57;2.50;99.90
5870;DHT22;2961;47.702;9.410;2022-12-19T13:13:53;2.40;99.90
5870;DHT22;2961;47.702;9.410;2022-12-19T13:19:24;2.40;99.90
5870;DHT22;2961;47.702;9.410;2022-12-19T13:22:17;2.50;99.90
5870;DHT22;2961;47.702;9.410;2022-12-19T13:24:49;2.50;99.90
5870;DHT22;2961;47.702;9.410;2022-12-19T13:27:33;2.50;99.90
5870;DHT22;2961;47.702;9.410;2022-12-19T13:30:14;2.50;99.90
5870;DHT22;2961;47.702;9.410;2022-12-19T13:33:07;2.50;99.90
5870;DHT22;2961;47.702;9.410;2022-12-19T13:35:35;2.50;99.90
5870;DHT22;2961;47.702;9.410;2022-12-19T13:38:19;2.60;99.90
5870;DHT22;2961;47.702;9.410;2022-12-19T13:40:55;2.60;99.90
5870;DHT22;2961;47.702;9.410;2022-12-19T13:43:26;2.60;99.90
5870;DHT22;2961;47.702;9.410;2022-12-19T13:46:29;2.60;99.90
5870;DHT22;2961;47.702;9.410;2022-12-19T13:49:02;2.50;99.90
5870;DHT22;2961;47.702;9.410;2022-12-19T13:51:41;2.50;99.90
5870;DHT22;2961;47.702;9.410;2022-12-19T13:54:19;2.40;99.90
5870;DHT22;2961;47.702;9.410;2022-12-19T13:56:49;2.40;99.90
5870;DHT22;2961;47.702;9.410;2022-12-19T13:59:16;2.30;99.90
5870;DHT22;2961;47.702;9.410;2022-12-19T14:01:43;2.30;99.90
5870;DHT22;2961;47.702;9.410;2022-12-19T14:04:13;2.30;99.90
5870;DHT22;2961;47.702;9.410;2022-12-19T14:06:53;2.20;99.90
5870;DHT22;2961;47.702;9.410;2022-12-19T14:09:26;2.20;99.90
5870;DHT22;2961;47.702;9.410;2022-12-19T14:11:57;2.20;99.90
5870;DHT22;2961;47.702;9.410;2022-12-19T14:14:25;2.20;99.90
5870;DHT22;2961;47.702;9.410;2022-12-19T14:17:12;2.20;99.90
5870;DHT22;2961;47.702;9.410;2022-12-19T14:19:41;2.30;99.90
5870;DHT22;2961;47.702;9.410;2022-12-19T14:22:12;2.30;99.90
5870;DHT22;2961;47.702;9.410;2022-12-19T14:24:39;2.20;99.90
5870;DHT22;2961;47.702;9.410;2022-12-19T14:27:12;2.20;99.90
5870;DHT22;2961;47.702;9.410;2022-12-19T14:29:45;2.20;99.90
5870;DHT22;2961;47.702;9.410;2022-12-19T14:32:14;2.20;99.90
5870;DHT22;2961;47.702;9.410;2022-12-19T14:34:42;2.20;99.90
5870;DHT22;2961;47.702;9.410;2022-12-19T14:37:26;2.10;99.90
5870;DHT22;2961;47.702;9.410;2022-12-19T14:39:57;2.10;99.90
5870;DHT22;2961;47.702;9.410;2022-12-19T14:42:27;2.00;99.90
5870;DHT22;2961;47.702;9.410;2022-12-19T14:45:31;1.90;99.90
5870;DHT22;2961;47.702;9.410;2022-12-19T14:47:59;1.90;99.90
5870;DHT22;2961;47.702;9.410;2022-12-19T14:50:28;1.80;99.90
5870;DHT22;2961;47.702;9.410;2022-12-19T14:53:06;1.70;99.90
5870;DHT22;2961;47.702;9.410;2022-12-19T14:55:33;1.60;99.90
5870;DHT22;2961;47.702;9.410;2022-12-19T14:58:07;1.50;99.90
5870;DHT22;2961;47.702;9.410;2022-12-19T15:00:43;1.40;99.90
5870;DHT22;2961;47.702;9.410;2022-12-19T15:03:15;1.20;99.90
5870;DHT22;2961;47.702;9.410;2022-12-19T15:05:44;1.20;99.90
5870;DHT22;2961;47.702;9.410;2022-12-19T15:08:11;1.20;99.90
5870;DHT22;2961;47.702;9.410;2022-12-19T15:10:38;1.10;99.90
5870;DHT22;2961;47.702;9.410;2022-12-19T15:13:24;1.00;99.90
5870;DHT22;2961;47.702;9.410;2022-12-19T15:15:55;0.90;99.90
5870;DHT22;2961;47.702;9.410;2022-12-19T15:18:26;0.80;99.90
5870;DHT22;2961;47.702;9.410;2022-12-19T15:20:54;0.70;99.90
5870;DHT22;2961;47.702;9.410;2022-12-19T15:23:22;0.60;99.90
5870;DHT22;2961;47.702;9.410;2022-12-19T15:25:51;0.60;99.90
5870;DHT22;2961;47.702;9.410;2022-12-19T15:28:19;0.50;99.90
5870;DHT22;2961;47.702;9.410;2022-12-19T15:30:51;0.50;99.90
5870;DHT22;2961;47.702;9.410;2022-12-19T15:33:19;0.50;99.90
5870;DHT22;2961;47.702;9.410;2022-12-19T15:35:46;0.40;99.90
5870;DHT22;2961;47.702;9.410;2022-12-19T15:38:13;0.30;99.90
5870;DHT22;2961;47.702;9.410;2022-12-19T15:40:40;0.10;99.90
5870;DHT22;2961;47.702;9.410;2022-12-19T15:43:14;0.00;99.90
5870;DHT22;2961;47.702;9.410;2022-12-19T15:45:42;-0.20;99.90
5870;DHT22;2961;47.702;9.410;2022-12-19T15:48:12;-0.20;99.90
5870;DHT22;2961;47.702;9.410;2022-12-19T15:50:40;-0.30;99.90
5870;DHT22;2961;47.702;9.410;2022-12-19T15:53:17;-0.40;99.90
5870;DHT22;2961;47.702;9.410;2022-12-19T15:55:45;-0.50;99.90
5870;DHT22;2961;47.702;9.410;2022-12-19T15:58:12;-0.60;99.90
5870;DHT22;2961;47.702;9.410;2022-12-19T16:00:49;-0.70;99.90
5870;DHT22;2961;47.702;9.410;2022-12-19T16:03:19;-0.80;99.90
5870;DHT22;2961;47.702;9.410;2022-12-19T16:05:46;-0.90;99.90
5870;DHT22;2961;47.702;9.410;2022-12-19T16:08:15;-0.90;99.90
5870;DHT22;2961;47.702;9.410;2022-12-19T16:10:43;-0.90;99.90
5870;DHT22;2961;47.702;9.410;2022-12-19T16:13:16;-0.80;99.90
5870;DHT22;2961;47.702;9.410;2022-12-19T16:15:44;-0.80;99.90
5870;DHT22;2961;47.702;9.410;2022-12-19T16:18:12;-0.90;99.90
5870;DHT22;2961;47.702;9.410;2022-12-19T16:20:41;-0.90;99.90
5870;DHT22;2961;47.702;9.410;2022-12-19T16:23:08;-1.00;99.90
5870;DHT22;2961;47.702;9.410;2022-12-19T16:25:37;-1.00;99.90
5870;DHT22;2961;47.702;9.410;2022-12-19T16:28:06;-1.10;99.90
5870;DHT22;2961;47.702;9.410;2022-12-19T16:30:34;-1.10;99.90
5870;DHT22;2961;47.702;9.410;2022-12-19T16:33:01;-1.10;99.90
5870;DHT22;2961;47.702;9.410;2022-12-19T16:35:28;-0.90;99.90
5870;DHT22;2961;47.702;9.410;2022-12-19T16:37:56;-0.90;99.90
5870;DHT22;2961;47.702;9.410;2022-12-19T16:40:24;-1.00;99.90
5870;DHT22;2961;47.702;9.410;2022-12-19T16:42:58;-1.00;99.90
5870;DHT22;2961;47.702;9.410;2022-12-19T16:45:30;-1.10;99.90